AIRPORT ID: S10

DATE: 2021-12-01 ZULU TIME: 14.55 LOCAL TIME: 6.55


METAR KS10 011455Z AUTO 20017G22KT 10SM 18/05 A2991

ALTIMETER: A2991 Q1013

DENSITY ALT: 1900 Ft

WIND DIRECT: 220

WIND SPEED: 17 Gust

WIND CONDITIONS:

VISIBILTY: 10SM 9999M

TEMPERATURE: 65 F 18 C

DEW POINT: 41 F 5 C

HUMID: 41%

LCL: 3,000-5,000 feet

RADIO CHECK: 0

ADVISARIES: 0

GREETINGS: 0

CONVERSATIONS: 0